Time;durP1;ratioP1;P1;durP2;ratioP2;P2;SDS_P1;SDS_P2;PMS_P1;PMS_P2;Temp;Humidity;BMP_temperature;BMP_pressure;BME280_temperature;BME280_humidity;BME280_pressure;Samples;Min_cycle;Max_cycle;Signal;HPM_P1;HPM_P2
2021/12/27 00:02:05;;;;;;;33.65;14.93;;;-5.60;99.90;;;;;;5037648;28;20028;-93
2021/12/27 00:04:31;;;;;;;37.78;16.00;;;-5.60;99.90;;;;;;5026601;28;20045;-93
2021/12/27 00:06:57;;;;;;;37.58;15.55;;;-5.60;99.90;;;;;;5017611;28;20025;-93
2021/12/27 00:09:22;;;;;;;38.03;15.00;;;-5.60;99.90;;;;;;5017485;28;20111;-93
2021/12/27 00:11:48;;;;;;;34.67;15.55;;;-5.60;99.90;;;;;;5017543;28;20021;-93
2021/12/27 00:14:14;;;;;;;32.78;12.63;;;-5.60;99.90;;;;;;5017349;28;20030;-93
2021/12/27 00:16:40;;;;;;;31.77;12.88;;;-5.60;99.90;;;;;;5017350;28;20084;-93
2021/12/27 00:19:06;;;;;;;28.58;11.93;;;-5.60;99.90;;;;;;5017588;28;20530;-94
2021/12/27 00:21:32;;;;;;;29.85;11.52;;;-5.60;99.90;;;;;;5027753;28;20033;-93
2021/12/27 04:52:39;;;;;;;37.15;15.65;;;-4.80;99.90;;;;;;5053754;28;20546;-95
2021/12/27 04:55:05;;;;;;;38.30;17.00;;;-4.80;99.90;;;;;;5036463;28;20083;-96
2021/12/27 04:57:31;;;;;;;37.15;17.15;;;-4.70;99.90;;;;;;5036653;28;20029;-96
2021/12/27 04:59:57;;;;;;;35.95;17.73;;;-4.70;99.90;;;;;;5036387;28;20033;-96
2021/12/27 05:02:23;;;;;;;38.08;17.00;;;-4.80;99.90;;;;;;5036550;28;20036;-95
2021/12/27 05:04:48;;;;;;;38.78;17.85;;;-4.70;99.90;;;;;;5036747;28;20033;-96
2021/12/27 05:07:14;;;;;;;35.33;16.77;;;-4.70;99.90;;;;;;5036776;28;20029;-96
2021/12/27 05:09:40;;;;;;;38.97;16.52;;;-4.60;99.90;;;;;;5036365;28;20112;-96
2021/12/27 05:12:06;;;;;;;39.42;17.98;;;-4.40;99.90;;;;;;5037660;28;20021;-96
2021/12/27 05:14:32;;;;;;;36.80;17.65;;;-4.40;99.90;;;;;;5036361;28;20033;-95
2021/12/27 05:16:58;;;;;;;38.47;18.83;;;-4.30;99.90;;;;;;5036607;28;20115;-96
2021/12/27 05:19:24;;;;;;;38.13;17.20;;;-4.20;99.90;;;;;;5036400;28;20082;-95
2021/12/27 05:21:50;;;;;;;48.15;21.02;;;-4.20;99.90;;;;;;5037648;28;20363;-96
2021/12/27 05:24:16;;;;;;;37.33;19.35;;;-4.30;99.90;;;;;;5036821;28;20048;-96
2021/12/27 05:30:09;;;;;;;40.20;18.52;;;-4.20;99.90;;;;;;5065969;28;20066;-96
2021/12/27 05:32:40;;;;;;;37.83;18.52;;;-4.10;99.90;;;;;;5057026;28;20021;-96
2021/12/27 05:35:08;;;;;;;39.63;19.75;;;-4.10;99.90;;;;;;5056307;28;20028;-95
2021/12/27 05:37:33;;;;;;;43.20;17.55;;;-4.10;99.90;;;;;;5056289;28;20021;-96
2021/12/27 05:40:04;;;;;;;28.77;15.95;;;-4.10;99.90;;;;;;5057069;28;20028;-96
2021/12/27 05:42:31;;;;;;;30.15;15.27;;;-4.20;99.90;;;;;;5056125;28;20028;-96
2021/12/27 05:44:57;;;;;;;34.08;17.65;;;-4.20;99.90;;;;;;5056012;28;20052;-95
2021/12/27 05:47:23;;;;;;;33.70;18.15;;;-4.20;99.90;;;;;;5056932;28;20459;-96
2021/12/27 14:24:54;;;;;;;175.98;59.05;;;-3.90;99.90;;;;;;5071747;28;20437;-91
2021/12/27 14:27:31;;;;;;;123.15;42.70;;;-3.90;99.90;;;;;;5054102;28;20033;-92
2021/12/27 14:30:09;;;;;;;34.08;16.13;;;-3.90;99.90;;;;;;5054130;28;20064;-93
2021/12/27 14:32:36;;;;;;;32.00;13.57;;;-3.90;99.90;;;;;;5053782;28;20032;-93
2021/12/27 14:35:02;;;;;;;21.30;11.98;;;-3.80;99.90;;;;;;5053676;28;20021;-93
2021/12/27 14:37:28;;;;;;;25.15;13.90;;;-3.80;99.90;;;;;;5053592;28;20021;-93
2021/12/27 14:39:54;;;;;;;46.17;21.75;;;-3.70;99.90;;;;;;5053557;28;20095;-94
2021/12/27 14:42:21;;;;;;;79.45;35.65;;;-3.70;99.90;;;;;;5054478;28;20036;-96
2021/12/27 14:44:48;;;;;;;41.63;20.80;;;-3.70;99.90;;;;;;5055138;28;20070;-96
2021/12/27 14:47:17;;;;;;;39.58;20.77;;;-3.70;99.90;;;;;;5053933;28;20029;-96
2021/12/27 14:49:44;;;;;;;27.65;13.82;;;-3.60;99.90;;;;;;5054862;28;20104;-96
2021/12/27 14:52:13;;;;;;;24.55;13.77;;;-3.50;99.90;;;;;;5054867;28;20360;-96
2021/12/27 14:54:43;;;;;;;32.65;15.93;;;-3.50;99.90;;;;;;5054804;28;20029;-96
2021/12/27 14:57:09;;;;;;;31.27;15.03;;;-3.50;99.90;;;;;;5053591;28;20024;-96
2021/12/27 14:59:36;;;;;;;28.13;14.10;;;-3.40;99.90;;;;;;5053421;28;20032;-96
2021/12/27 15:02:04;;;;;;;26.75;13.02;;;-3.40;99.90;;;;;;5053423;28;20021;-96
2021/12/27 15:04:30;;;;;;;23.50;12.75;;;-3.40;99.90;;;;;;5053294;28;20112;-96
2021/12/27 15:06:57;;;;;;;57.13;23.17;;;-3.40;99.90;;;;;;5053543;28;20052;-95
2021/12/27 15:09:23;;;;;;;32.13;15.95;;;-3.40;99.90;;;;;;5053735;28;20088;-95
2021/12/27 15:11:49;;;;;;;28.42;14.73;;;-3.40;99.90;;;;;;5056476;28;20506;-94
2021/12/27 15:14:17;;;;;;;28.33;15.40;;;-3.40;99.90;;;;;;5052754;28;20016;-94
2021/12/27 15:16:44;;;;;;;32.45;15.18;;;-3.50;99.90;;;;;;5053364;28;20021;-93
2021/12/27 15:19:10;;;;;;;31.98;14.65;;;-3.50;99.90;;;;;;5052815;28;20025;-94
2021/12/27 15:21:36;;;;;;;21.75;11.40;;;-3.40;99.90;;;;;;5052804;28;20576;-90
2021/12/27 15:24:02;;;;;;;25.05;13.57;;;-3.50;99.90;;;;;;5049482;28;20055;-93
2021/12/27 15:26:27;;;;;;;26.20;12.90;;;-3.50;99.90;;;;;;5049244;28;20104;-93
2021/12/27 15:28:53;;;;;;;25.00;12.50;;;-3.50;99.90;;;;;;5049378;28;20049;-93
2021/12/27 15:31:19;;;;;;;25.95;14.55;;;-3.50;99.90;;;;;;5049335;28;20458;-93
2021/12/27 15:33:45;;;;;;;28.20;14.82;;;-3.50;99.90;;;;;;5049061;28;20029;-93
2021/12/27 15:36:10;;;;;;;23.98;13.20;;;-3.50;99.90;;;;;;5035726;28;20108;-93
2021/12/27 15:38:36;;;;;;;25.75;13.90;;;-3.50;99.90;;;;;;5035988;28;20103;-94
2021/12/27 15:41:03;;;;;;;23.00;14.02;;;-3.50;99.90;;;;;;5036069;28;20454;-94
2021/12/27 15:43:29;;;;;;;24.50;14.05;;;-3.60;99.90;;;;;;5035891;28;20490;-93
2021/12/27 15:45:54;;;;;;;37.63;18.13;;;-3.60;99.90;;;;;;5035921;28;20029;-93
2021/12/27 15:48:23;;;;;;;37.75;17.65;;;-3.60;99.90;;;;;;5035583;28;20025;-93
2021/12/27 15:50:49;;;;;;;32.25;17.08;;;-3.60;99.90;;;;;;5035728;28;20026;-93
2021/12/27 15:53:14;;;;;;;29.92;16.25;;;-3.60;99.90;;;;;;5036094;28;20047;-93
2021/12/27 15:55:40;;;;;;;25.27;14.20;;;-3.60;99.90;;;;;;5035605;28;20025;-93
2021/12/27 15:58:09;;;;;;;31.80;15.65;;;-3.80;99.90;;;;;;5035876;28;20026;-93
2021/12/27 16:00:35;;;;;;;29.65;14.90;;;-3.70;99.90;;;;;;5035591;28;20026;-93
2021/12/27 16:03:01;;;;;;;29.05;15.95;;;-3.70;99.90;;;;;;5036254;28;20026;-96
2021/12/27 16:05:27;;;;;;;33.90;16.83;;;-3.80;99.90;;;;;;5035967;28;20032;-96
2021/12/27 16:07:53;;;;;;;22.88;12.77;;;-3.80;99.90;;;;;;5035762;28;20060;-96
2021/12/27 16:10:28;;;;;;;25.92;13.50;;;-3.80;99.90;;;;;;5035595;28;20434;-95
2021/12/27 16:12:55;;;;;;;25.63;12.90;;;-3.80;99.90;;;;;;5035455;28;20025;-95
2021/12/27 16:15:22;;;;;;;30.83;14.88;;;-3.70;99.90;;;;;;5035385;28;20028;-95
2021/12/27 16:17:48;;;;;;;35.10;15.55;;;-3.70;99.90;;;;;;5035345;28;20533;-96
2021/12/27 16:20:15;;;;;;;27.23;14.35;;;-3.60;99.90;;;;;;5037481;28;20025;-96
2021/12/27 16:22:42;;;;;;;25.75;12.85;;;-3.70;99.90;;;;;;5042620;28;20080;-95
2021/12/27 16:25:10;;;;;;;28.20;14.82;;;-3.70;99.90;;;;;;5040203;28;20102;-96
2021/12/27 16:27:37;;;;;;;31.38;15.30;;;-3.70;99.90;;;;;;5040696;28;20124;-96
2021/12/27 16:30:06;;;;;;;29.38;14.32;;;-3.80;99.90;;;;;;5040409;28;20017;-94
2021/12/27 16:32:32;;;;;;;28.33;14.77;;;-3.90;99.90;;;;;;5040134;28;20029;-96
2021/12/27 16:34:58;;;;;;;31.35;14.55;;;-3.80;99.90;;;;;;5041121;28;20049;-96
2021/12/27 16:37:24;;;;;;;29.80;14.30;;;-3.80;99.90;;;;;;5040059;28;20115;-96
2021/12/27 16:39:49;;;;;;;36.78;16.25;;;-3.80;99.90;;;;;;5038826;28;20057;-96
2021/12/27 16:42:16;;;;;;;34.88;17.88;;;-3.80;99.90;;;;;;5040992;28;20075;-96
2021/12/27 16:44:43;;;;;;;28.70;14.40;;;-3.80;99.90;;;;;;5042101;28;20054;-96
2021/12/27 16:47:13;;;;;;;31.52;14.30;;;-3.70;99.90;;;;;;5043502;28;20021;-96
2021/12/27 16:49:39;;;;;;;32.50;15.00;;;-3.70;99.90;;;;;;5046930;28;20032;-96
2021/12/27 16:52:07;;;;;;;32.47;16.15;;;-3.70;99.90;;;;;;5048263;28;20028;-95
2021/12/27 16:54:33;;;;;;;27.42;13.60;;;-3.70;99.90;;;;;;5044186;28;20124;-96
2021/12/27 16:57:02;;;;;;;34.33;16.05;;;-3.70;99.90;;;;;;5043319;28;20029;-96
2021/12/27 16:59:28;;;;;;;28.60;13.50;;;-3.70;99.90;;;;;;5043180;28;20021;-96
2021/12/27 17:01:57;;;;;;;33.42;15.73;;;-3.80;99.90;;;;;;5040662;28;20060;-96
2021/12/27 17:04:23;;;;;;;26.85;14.23;;;-3.90;99.90;;;;;;5040157;28;20037;-96
2021/12/27 17:06:48;;;;;;;31.05;16.58;;;-3.90;99.90;;;;;;5040201;28;20047;-96
2021/12/27 17:09:14;;;;;;;28.75;14.80;;;-4.00;99.90;;;;;;5040488;28;20136;-96
2021/12/27 17:11:40;;;;;;;24.55;13.52;;;-4.00;99.90;;;;;;5040384;28;20132;-96
2021/12/27 17:14:05;;;;;;;31.40;15.82;;;-4.00;99.90;;;;;;5039481;28;20124;-96
2021/12/27 17:16:35;;;;;;;33.63;15.07;;;-4.00;99.90;;;;;;5040743;28;20066;-96
2021/12/27 17:19:06;;;;;;;79.65;30.40;;;-4.00;99.90;;;;;;5047948;28;20119;-95
2021/12/27 17:25:11;;;;;;;31.02;16.17;;;-4.00;99.90;;;;;;5071559;28;20096;-96
2021/12/27 17:27:38;;;;;;;33.13;15.52;;;-3.90;99.90;;;;;;5056348;28;20049;-96
2021/12/27 17:30:09;;;;;;;31.08;15.32;;;-3.90;99.90;;;;;;5056246;28;20060;-96
2021/12/27 17:32:36;;;;;;;28.75;15.13;;;-4.00;99.90;;;;;;5073158;28;20044;-96
2021/12/27 17:35:02;;;;;;;31.48;15.93;;;-4.10;99.90;;;;;;5040594;28;20029;-96
2021/12/27 17:48:37;;;;;;;35.33;16.83;;;-4.20;99.90;;;;;;5506567;23;19927;-96
2021/12/27 17:51:08;;;;;;;31.77;15.50;;;-4.20;99.90;;;;;;4955843;29;20034;-96
2021/12/27 17:53:34;;;;;;;32.63;15.70;;;-4.20;99.90;;;;;;4955322;29;20024;-96
2021/12/27 17:56:00;;;;;;;28.23;13.95;;;-4.30;99.90;;;;;;4956656;29;20098;-96
2021/12/27 17:58:26;;;;;;;33.20;15.82;;;-4.30;99.90;;;;;;4941390;29;20115;-96
2021/12/27 18:00:53;;;;;;;30.42;15.20;;;-4.30;99.90;;;;;;4954138;29;20031;-96
2021/12/27 18:03:25;;;;;;;31.60;15.82;;;-4.30;99.90;;;;;;4945723;29;20034;-96
2021/12/27 18:05:50;;;;;;;32.38;15.27;;;-4.20;99.90;;;;;;4945359;29;20474;-96
2021/12/27 18:08:16;;;;;;;43.22;18.42;;;-4.20;99.90;;;;;;4943738;29;20031;-96
2021/12/27 18:10:45;;;;;;;34.55;16.95;;;-4.10;99.90;;;;;;4958606;29;20030;-96
2021/12/27 18:13:12;;;;;;;34.13;17.40;;;-4.10;99.90;;;;;;4952042;29;20027;-96
2021/12/27 18:15:40;;;;;;;32.65;15.18;;;-4.10;99.90;;;;;;4951909;29;20039;-96
2021/12/27 18:18:10;;;;;;;28.80;15.02;;;-4.10;99.90;;;;;;4938074;29;20035;-96
2021/12/27 18:20:36;;;;;;;31.60;15.80;;;-4.10;99.90;;;;;;4935257;29;20035;-96
2021/12/27 18:23:05;;;;;;;32.70;14.23;;;-4.20;99.90;;;;;;4967597;29;20530;-96
2021/12/27 18:25:33;;;;;;;26.73;12.50;;;-4.10;99.90;;;;;;4950488;29;20047;-96
2021/12/27 18:27:59;;;;;;;29.75;14.02;;;-4.10;99.90;;;;;;4969728;29;20155;-96
2021/12/27 18:30:25;;;;;;;29.55;13.68;;;-4.10;99.90;;;;;;4952379;29;20028;-95
2021/12/27 18:32:51;;;;;;;28.77;14.82;;;-4.30;99.90;;;;;;4955193;29;20031;-95
2021/12/27 18:35:17;;;;;;;30.35;13.50;;;-4.20;99.90;;;;;;4951640;29;20082;-96
2021/12/27 18:37:45;;;;;;;30.85;12.90;;;-4.20;99.90;;;;;;4951808;29;20031;-96
2021/12/27 18:40:11;;;;;;;28.35;13.48;;;-4.30;99.90;;;;;;4952179;29;20031;-96
2021/12/27 18:42:43;;;;;;;26.65;12.75;;;-4.40;99.90;;;;;;4948000;29;20023;-96
2021/12/27 18:45:11;;;;;;;26.98;13.85;;;-4.40;99.90;;;;;;4971539;29;20023;-95
2021/12/27 18:47:37;;;;;;;25.92;12.30;;;-4.40;99.90;;;;;;4950943;29;20027;-96
2021/12/27 18:50:07;;;;;;;26.42;11.88;;;-4.50;99.90;;;;;;4969442;29;20063;-96
2021/12/27 18:52:34;;;;;;;24.48;12.57;;;-4.40;99.90;;;;;;4937278;29;20037;-95
2021/12/27 18:55:00;;;;;;;25.27;12.52;;;-4.50;99.90;;;;;;4939588;29;20111;-96
2021/12/27 18:57:33;;;;;;;28.48;14.02;;;-4.40;99.90;;;;;;4954301;29;20047;-96
2021/12/27 19:00:00;;;;;;;32.05;14.88;;;-4.40;99.90;;;;;;4955273;29;20027;-96
2021/12/27 19:02:29;;;;;;;33.80;15.00;;;-4.40;99.90;;;;;;4956059;29;20087;-96
2021/12/27 19:04:55;;;;;;;30.75;14.43;;;-4.40;99.90;;;;;;4973257;29;20031;-96
2021/12/27 19:07:21;;;;;;;31.67;15.63;;;-4.30;99.90;;;;;;4973936;29;20083;-95
2021/12/27 19:09:49;;;;;;;41.63;17.95;;;-4.20;99.90;;;;;;4958984;29;20023;-96
2021/12/27 19:12:14;;;;;;;34.63;15.82;;;-4.10;99.90;;;;;;4945152;29;20035;-96
2021/12/27 19:14:40;;;;;;;35.78;15.25;;;-4.10;99.90;;;;;;4956716;29;20051;-96
2021/12/27 19:17:07;;;;;;;37.90;16.40;;;-4.10;99.90;;;;;;4958354;29;20022;-96
2021/12/27 19:19:35;;;;;;;35.20;14.88;;;-4.10;99.90;;;;;;4977741;29;20091;-96
2021/12/27 19:22:01;;;;;;;38.38;17.40;;;-4.20;99.90;;;;;;4953767;29;20047;-96
2021/12/27 19:24:27;;;;;;;31.33;15.23;;;-4.20;99.90;;;;;;4949419;29;20114;-96
2021/12/27 19:26:54;;;;;;;36.08;16.30;;;-4.20;99.90;;;;;;4942275;29;20036;-96
2021/12/27 19:29:20;;;;;;;34.63;15.13;;;-4.20;99.90;;;;;;4942097;29;20031;-96
2021/12/27 19:31:46;;;;;;;36.15;15.27;;;-4.10;99.90;;;;;;4942093;29;20028;-96
2021/12/27 19:34:12;;;;;;;29.85;14.38;;;-4.00;99.90;;;;;;4941987;29;20493;-96
2021/12/27 19:36:38;;;;;;;27.60;13.48;;;-4.10;99.90;;;;;;4942037;29;20027;-96
2021/12/27 19:39:05;;;;;;;30.95;14.52;;;-4.00;99.90;;;;;;4942102;29;20039;-95
2021/12/27 19:41:33;;;;;;;31.33;15.10;;;-4.00;99.90;;;;;;4959461;29;20026;-96
2021/12/27 19:43:59;;;;;;;31.42;15.02;;;-4.00;99.90;;;;;;4942144;29;20031;-96
2021/12/27 19:46:25;;;;;;;31.50;15.15;;;-4.00;99.90;;;;;;4942067;29;20051;-96
2021/12/27 19:48:51;;;;;;;28.73;14.35;;;-4.00;99.90;;;;;;4941598;29;20508;-96
2021/12/27 19:51:17;;;;;;;31.75;14.55;;;-4.00;99.90;;;;;;4941898;29;20050;-96
2021/12/27 19:53:43;;;;;;;28.25;14.00;;;-4.00;99.90;;;;;;4941703;29;20059;-96
2021/12/27 19:56:09;;;;;;;41.72;16.98;;;-3.90;99.90;;;;;;4941704;29;20023;-96
2021/12/27 19:58:35;;;;;;;28.13;13.57;;;-4.00;99.90;;;;;;4941597;29;20062;-96
2021/12/27 20:01:01;;;;;;;31.10;14.68;;;-4.00;99.90;;;;;;4941565;29;20058;-96
2021/12/27 20:03:27;;;;;;;29.88;15.25;;;-4.00;99.90;;;;;;4941532;29;20114;-96
2021/12/27 20:05:52;;;;;;;32.72;16.27;;;-4.00;99.90;;;;;;4941645;29;20031;-96
2021/12/27 20:08:18;;;;;;;32.45;16.63;;;-4.00;99.90;;;;;;4941344;29;20513;-96
2021/12/27 20:10:44;;;;;;;29.80;14.73;;;-3.90;99.90;;;;;;4941360;29;20492;-96
2021/12/27 20:13:10;;;;;;;31.65;15.63;;;-3.90;99.90;;;;;;4941409;29;20470;-96
2021/12/27 20:15:38;;;;;;;27.02;14.55;;;-3.80;99.90;;;;;;4941103;29;20027;-96
2021/12/27 20:18:05;;;;;;;25.17;14.65;;;-3.90;99.90;;;;;;4941515;29;20066;-96
2021/12/27 20:20:31;;;;;;;28.13;14.85;;;-3.80;99.90;;;;;;4941599;29;20038;-96
2021/12/27 20:22:58;;;;;;;25.60;14.55;;;-3.80;99.90;;;;;;4941268;29;20035;-95
2021/12/27 20:25:25;;;;;;;31.33;16.65;;;-3.80;99.90;;;;;;4941208;29;20023;-96
2021/12/27 20:27:51;;;;;;;28.80;14.95;;;-3.90;99.90;;;;;;4941243;29;20032;-96
2021/12/27 20:30:17;;;;;;;30.95;15.85;;;-3.70;99.90;;;;;;4941082;29;20466;-96
2021/12/27 20:32:44;;;;;;;32.63;15.95;;;-3.80;99.90;;;;;;4941239;29;20031;-95
2021/12/27 20:35:10;;;;;;;38.58;18.90;;;-3.80;99.90;;;;;;4941085;29;20032;-96
2021/12/27 20:37:36;;;;;;;41.97;18.55;;;-3.80;99.90;;;;;;4940995;29;20027;-96
2021/12/27 20:40:02;;;;;;;36.80;18.23;;;-3.80;99.90;;;;;;4940937;29;20093;-94
2021/12/27 20:42:28;;;;;;;35.53;18.23;;;-3.80;99.90;;;;;;4940664;29;20079;-95
2021/12/27 20:44:54;;;;;;;35.65;17.38;;;-3.80;99.90;;;;;;4941111;29;20031;-95
2021/12/27 20:47:20;;;;;;;32.85;18.40;;;-3.70;99.90;;;;;;4940675;29;20074;-96
2021/12/27 20:49:46;;;;;;;34.38;17.35;;;-3.70;99.90;;;;;;4940450;29;20051;-95
2021/12/27 20:52:12;;;;;;;37.05;17.38;;;-3.80;99.90;;;;;;4940635;29;20024;-96
2021/12/27 20:54:39;;;;;;;36.85;16.98;;;-3.80;99.90;;;;;;4940624;29;20031;-95
2021/12/27 20:57:05;;;;;;;39.33;17.92;;;-3.80;99.90;;;;;;4940482;29;20494;-95
2021/12/27 20:59:31;;;;;;;33.40;16.50;;;-3.70;99.90;;;;;;4940748;29;20041;-96
2021/12/27 21:01:57;;;;;;;35.08;17.42;;;-3.70;99.90;;;;;;4940511;29;20031;-96
2021/12/27 21:04:22;;;;;;;32.30;17.35;;;-3.70;99.90;;;;;;4940541;29;20500;-95
2021/12/27 21:06:48;;;;;;;31.05;15.27;;;-3.70;99.90;;;;;;4940692;29;20027;-95
2021/12/27 21:09:14;;;;;;;31.80;15.75;;;-3.80;99.90;;;;;;4940469;29;20028;-95
2021/12/27 21:11:41;;;;;;;30.60;14.10;;;-3.70;99.90;;;;;;4940300;29;20028;-96
2021/12/27 21:14:08;;;;;;;28.20;14.57;;;-3.80;99.90;;;;;;4940343;29;20023;-96
2021/12/27 21:16:34;;;;;;;28.67;15.07;;;-3.80;99.90;;;;;;4940185;29;20027;-95
2021/12/27 21:19:01;;;;;;;28.58;15.13;;;-3.80;99.90;;;;;;4940362;29;20031;-96
2021/12/27 21:21:27;;;;;;;29.52;15.35;;;-3.80;99.90;;;;;;4940172;29;20037;-95
2021/12/27 21:23:53;;;;;;;32.63;16.30;;;-3.80;99.90;;;;;;4940091;29;20122;-95
2021/12/27 21:26:19;;;;;;;32.05;16.85;;;-3.80;99.90;;;;;;4940194;29;20050;-95
2021/12/27 21:28:46;;;;;;;35.58;17.13;;;-3.80;99.90;;;;;;4939954;29;20035;-95
2021/12/27 21:31:13;;;;;;;39.20;18.90;;;-3.80;99.90;;;;;;4940102;29;20019;-95
2021/12/27 21:33:39;;;;;;;31.13;16.15;;;-4.00;99.90;;;;;;4939499;29;20055;-95
2021/12/27 21:36:05;;;;;;;39.72;18.25;;;-3.90;99.90;;;;;;4940150;29;20120;-96
2021/12/27 21:38:31;;;;;;;32.35;16.30;;;-3.90;99.90;;;;;;4939931;29;20034;-95
2021/12/27 21:40:59;;;;;;;31.33;16.58;;;-4.00;99.90;;;;;;4939942;29;20023;-96
2021/12/27 21:43:25;;;;;;;32.28;16.27;;;-4.00;99.90;;;;;;4939680;29;20078;-95
2021/12/27 21:45:51;;;;;;;36.20;15.63;;;-4.00;99.90;;;;;;4939993;29;20023;-95
2021/12/27 21:48:17;;;;;;;35.78;15.65;;;-4.00;99.90;;;;;;4939639;29;20466;-93
2021/12/27 21:50:43;;;;;;;30.92;16.75;;;-4.00;99.90;;;;;;4939651;29;20031;-96
2021/12/27 21:53:09;;;;;;;37.22;17.92;;;-4.10;99.90;;;;;;4939682;29;20033;-94
2021/12/27 21:55:38;;;;;;;32.67;15.75;;;-4.10;99.90;;;;;;4939484;29;20070;-95
2021/12/27 21:58:05;;;;;;;32.97;16.05;;;-4.10;99.90;;;;;;4939720;29;20086;-95
2021/12/27 22:00:34;;;;;;;34.90;16.23;;;-4.10;99.90;;;;;;4940039;29;20462;-95
2021/12/27 22:03:01;;;;;;;33.45;15.88;;;-4.20;99.90;;;;;;4939574;29;20094;-95
2021/12/27 22:05:27;;;;;;;37.80;17.42;;;-4.30;99.90;;;;;;4939811;29;20039;-96
2021/12/27 22:07:53;;;;;;;36.50;17.00;;;-4.20;99.90;;;;;;4939678;29;20033;-96
2021/12/27 22:10:20;;;;;;;37.60;16.73;;;-4.20;99.90;;;;;;4939385;29;20019;-95
2021/12/27 22:12:47;;;;;;;34.47;16.58;;;-4.20;99.90;;;;;;4939731;29;20026;-95
2021/12/27 22:15:15;;;;;;;37.65;17.52;;;-4.20;99.90;;;;;;4939354;29;20027;-95
2021/12/27 22:17:41;;;;;;;38.45;16.75;;;-4.20;99.90;;;;;;4939414;29;20027;-95
2021/12/27 22:20:08;;;;;;;35.65;17.35;;;-4.30;99.90;;;;;;4939349;29;20038;-95
2021/12/27 22:22:35;;;;;;;36.58;18.98;;;-4.20;99.90;;;;;;4939255;29;20020;-95
2021/12/27 22:25:02;;;;;;;36.88;16.80;;;-4.10;99.90;;;;;;4939287;29;20019;-95
2021/12/27 22:27:28;;;;;;;35.92;17.73;;;-4.10;99.90;;;;;;4939663;29;20059;-96
2021/12/27 22:29:54;;;;;;;39.92;18.95;;;-4.10;99.90;;;;;;4939427;29;20430;-96
2021/12/27 22:32:20;;;;;;;35.83;17.35;;;-4.20;99.90;;;;;;4939224;29;20059;-95
2021/12/27 22:34:46;;;;;;;39.42;17.50;;;-4.30;99.90;;;;;;4939170;29;20082;-95
2021/12/27 22:37:13;;;;;;;29.98;15.02;;;-4.30;99.90;;;;;;4939139;29;20090;-95
2021/12/27 22:39:38;;;;;;;30.23;16.00;;;-4.30;99.90;;;;;;4939121;29;20035;-96
2021/12/27 22:42:04;;;;;;;28.80;15.07;;;-4.30;99.90;;;;;;4939203;29;20130;-95
2021/12/27 22:44:30;;;;;;;33.58;15.13;;;-4.40;99.90;;;;;;4939505;29;20028;-95
2021/12/27 22:46:56;;;;;;;33.22;14.63;;;-4.50;99.90;;;;;;4943039;29;20474;-95
2021/12/27 22:49:21;;;;;;;30.88;14.15;;;-4.50;99.90;;;;;;4943049;29;20379;-95
2021/12/27 22:51:47;;;;;;;29.23;13.95;;;-4.50;99.90;;;;;;4942908;29;20387;-95
2021/12/27 22:54:13;;;;;;;29.08;15.10;;;-4.60;99.90;;;;;;4942882;29;20054;-96
2021/12/27 22:56:39;;;;;;;31.13;14.77;;;-4.70;99.90;;;;;;4942814;29;20038;-95
2021/12/27 22:59:04;;;;;;;31.65;14.82;;;-4.70;99.90;;;;;;4942828;29;20039;-96
2021/12/27 23:01:30;;;;;;;28.45;14.18;;;-4.60;99.90;;;;;;4942555;29;20027;-95
2021/12/27 23:03:56;;;;;;;30.33;14.77;;;-4.60;99.90;;;;;;4942653;29;20034;-96
2021/12/27 23:06:26;;;;;;;29.95;15.73;;;-4.60;99.90;;;;;;4942674;29;20023;-94
2021/12/27 23:08:53;;;;;;;30.93;14.83;;;-4.60;99.90;;;;;;4942772;29;20111;-94
2021/12/27 23:11:19;;;;;;;32.50;15.30;;;-4.50;99.90;;;;;;4942693;29;20344;-95
2021/12/27 23:13:44;;;;;;;32.15;15.23;;;-4.50;99.90;;;;;;4942627;29;20450;-96
2021/12/27 23:16:10;;;;;;;33.10;16.35;;;-4.50;99.90;;;;;;4942458;29;20060;-94
2021/12/27 23:18:36;;;;;;;27.60;15.20;;;-4.40;99.90;;;;;;4942425;29;20031;-96
2021/12/27 23:21:03;;;;;;;31.65;16.00;;;-4.50;99.90;;;;;;4942482;29;20055;-95
2021/12/27 23:23:28;;;;;;;30.83;14.00;;;-4.40;99.90;;;;;;4942328;29;20023;-95
2021/12/27 23:25:54;;;;;;;30.55;15.18;;;-4.30;99.90;;;;;;4942416;29;20027;-95
2021/12/27 23:28:20;;;;;;;30.52;14.63;;;-4.30;99.90;;;;;;4942637;29;20122;-95
2021/12/27 23:30:47;;;;;;;28.95;15.43;;;-4.20;99.90;;;;;;4942314;29;20023;-95
2021/12/27 23:33:29;;;;;;;27.10;14.02;;;-4.10;99.90;;;;;;4942525;29;20474;-95
2021/12/27 23:35:58;;;;;;;25.55;12.95;;;-4.20;99.90;;;;;;4942298;29;20039;-96
2021/12/27 23:38:29;;;;;;;26.15;12.57;;;-4.40;99.90;;;;;;4942070;29;20031;-96
2021/12/27 23:40:57;;;;;;;24.67;12.77;;;-4.50;99.90;;;;;;4942120;29;20051;-95
2021/12/27 23:43:23;;;;;;;27.23;13.77;;;-4.60;99.90;;;;;;4941988;29;20086;-96
2021/12/27 23:45:49;;;;;;;28.30;12.82;;;-4.60;99.90;;;;;;4942025;29;20426;-95
2021/12/27 23:48:16;;;;;;;29.58;13.60;;;-4.60;99.90;;;;;;4941685;28;20027;-95
2021/12/27 23:50:43;;;;;;;32.42;14.05;;;-4.60;99.90;;;;;;4941840;29;20031;-95
2021/12/27 23:53:09;;;;;;;29.85;13.90;;;-4.70;99.90;;;;;;4941792;29;20027;-95
2021/12/27 23:55:36;;;;;;;31.63;15.35;;;-4.70;99.90;;;;;;4941325;29;20031;-96
